createdAt,value
2023-01-09T00:00:08.683Z,5.28
2023-01-09T00:02:13.639Z,5.47
2023-01-09T00:04:15.722Z,5.78
2023-01-09T00:06:17.220Z,5.72
2023-01-09T00:08:19.459Z,5.63
2023-01-09T00:10:21.053Z,5.63
2023-01-09T00:12:22.607Z,5.28
2023-01-09T00:14:24.247Z,5.60
2023-01-09T00:16:25.954Z,5.07
2023-01-09T00:18:27.642Z,5.65
2023-01-09T00:20:29.490Z,5.40
2023-01-09T00:22:31.452Z,5.45
2023-01-09T00:24:33.157Z,5.55
2023-01-09T00:26:35.917Z,5.95
2023-01-09T00:28:41.289Z,5.10
2023-01-09T00:30:43.232Z,5.95
2023-01-09T00:32:44.841Z,6.05
2023-01-09T00:34:47.471Z,5.75
2023-01-09T00:36:49.153Z,5.75
2023-01-09T00:38:50.934Z,5.90
2023-01-09T00:40:56.375Z,5.50
2023-01-09T00:42:59.030Z,5.80
2023-01-09T00:45:04.564Z,5.93
2023-01-09T00:47:13.743Z,5.90
2023-01-09T00:49:19.744Z,6.07
2023-01-09T00:51:21.520Z,5.82
2023-01-09T00:53:31.483Z,6.18
2023-01-09T00:55:34.721Z,6.18
2023-01-09T00:57:39.745Z,6.00
2023-01-09T00:59:42.417Z,6.30
2023-01-09T01:01:44.079Z,5.97
2023-01-09T01:03:45.695Z,6.40
2023-01-09T01:06:05.707Z,6.35
2023-01-09T01:08:15.101Z,6.20
2023-01-09T01:10:20.431Z,5.40
2023-01-09T01:12:22.048Z,6.78
2023-01-09T01:14:23.622Z,5.97
2023-01-09T01:16:25.638Z,6.28
2023-01-09T01:18:27.172Z,6.55
2023-01-09T01:20:28.754Z,6.10
2023-01-09T01:22:30.405Z,6.40
2023-01-09T01:24:32.126Z,6.85
2023-01-09T01:26:33.707Z,7.07
2023-01-09T01:28:38.514Z,6.47
2023-01-09T01:30:42.792Z,6.53
2023-01-09T01:32:44.623Z,6.32
2023-01-09T01:34:47.677Z,6.63
2023-01-09T01:36:49.470Z,6.45
2023-01-09T01:38:50.961Z,7.50
2023-01-09T01:40:54.293Z,6.60
2023-01-09T01:42:56.005Z,6.85
2023-01-09T01:45:03.390Z,6.90
2023-01-09T01:47:06.410Z,6.40
2023-01-09T01:49:14.654Z,6.18
2023-01-09T01:51:20.285Z,6.82
2023-01-09T01:53:29.682Z,6.78
2023-01-09T01:55:36.605Z,6.80
2023-01-09T01:57:42.934Z,7.30
2023-01-09T01:59:52.749Z,6.63
2023-01-09T02:01:57.497Z,6.82
2023-01-09T02:04:01.869Z,6.97
2023-01-09T02:06:04.938Z,6.65
2023-01-09T02:08:08.324Z,6.75
2023-01-09T02:10:12.495Z,7.05
2023-01-09T02:12:26.333Z,6.65
2023-01-09T02:14:31.863Z,6.53
2023-01-09T02:16:47.940Z,6.80
2023-01-09T02:19:18.458Z,6.90
2023-01-09T02:21:29.062Z,6.65
2023-01-09T02:24:02.034Z,6.57
2023-01-09T02:26:03.742Z,6.82
2023-01-09T02:28:39.970Z,6.35
2023-01-09T02:31:02.012Z,6.50
2023-01-09T02:33:11.938Z,6.55
2023-01-09T02:35:40.309Z,6.18
2023-01-09T02:37:58.044Z,5.97
2023-01-09T02:40:24.359Z,6.20
2023-01-09T02:42:27.123Z,6.15
2023-01-09T02:44:30.411Z,6.07
2023-01-09T02:46:31.981Z,5.72
2023-01-09T02:48:33.698Z,6.57
2023-01-09T02:50:57.143Z,6.18
2023-01-09T02:53:22.089Z,5.93
2023-01-09T02:55:47.199Z,6.03
2023-01-09T02:58:05.916Z,6.05
2023-01-09T03:00:13.228Z,6.30
2023-01-09T03:02:39.031Z,6.07
2023-01-09T03:04:53.313Z,6.32
2023-01-09T03:07:15.266Z,6.13
2023-01-09T03:09:22.445Z,6.63
2023-01-09T03:11:28.571Z,6.00
2023-01-09T03:13:51.075Z,5.82
2023-01-09T03:15:55.489Z,5.45
2023-01-09T03:17:57.871Z,5.95
2023-01-09T03:20:02.743Z,5.20
2023-01-09T03:22:10.856Z,5.75
2023-01-09T03:24:12.544Z,5.85
2023-01-09T03:26:16.387Z,5.18
2023-01-09T03:28:29.163Z,5.40
2023-01-09T03:30:32.315Z,5.18
2023-01-09T03:32:33.851Z,5.43
2023-01-09T03:34:35.386Z,5.45
2023-01-09T03:36:37.042Z,5.20
2023-01-09T03:38:38.780Z,5.05
2023-01-09T03:40:40.870Z,5.18
2023-01-09T03:42:42.399Z,4.88
2023-01-09T03:44:45.548Z,4.88
2023-01-09T03:46:47.914Z,4.82
2023-01-09T03:48:49.379Z,4.60
2023-01-09T03:50:54.963Z,5.57
2023-01-09T03:52:56.760Z,5.25
2023-01-09T03:54:58.417Z,5.10
2023-01-09T03:56:59.992Z,4.75
2023-01-09T03:59:01.540Z,4.43
2023-01-09T04:01:05.729Z,4.35
2023-01-09T04:03:08.982Z,4.43
2023-01-09T04:05:10.971Z,4.72
2023-01-09T04:07:12.595Z,4.32
2023-01-09T04:09:14.153Z,5.25
2023-01-09T04:11:18.063Z,4.68
2023-01-09T04:13:22.718Z,4.88
2023-01-09T04:15:24.850Z,4.60
2023-01-09T04:17:28.809Z,4.72
2023-01-09T04:19:31.541Z,4.90
2023-01-09T04:21:36.223Z,4.93
2023-01-09T04:23:39.125Z,4.95
2023-01-09T04:25:40.603Z,5.10
2023-01-09T04:27:42.277Z,4.53
2023-01-09T04:29:43.827Z,5.13
2023-01-09T04:31:47.740Z,5.15
2023-01-09T04:33:49.419Z,5.10
2023-01-09T04:35:50.924Z,5.43
2023-01-09T04:37:52.812Z,5.20
2023-01-09T04:39:57.287Z,5.40
2023-01-09T04:41:58.847Z,5.22
2023-01-09T04:44:04.729Z,4.65
2023-01-09T04:46:06.283Z,4.65
2023-01-09T04:48:08.004Z,4.93
2023-01-09T04:50:11.658Z,5.40
2023-01-09T04:52:13.262Z,5.85
2023-01-09T04:54:15.314Z,5.68
2023-01-09T04:56:16.965Z,5.03
2023-01-09T04:58:24.309Z,5.72
2023-01-09T05:00:51.509Z,5.47
2023-01-09T05:02:53.182Z,5.38
2023-01-09T05:04:54.867Z,5.50
2023-01-09T05:06:56.517Z,5.75
2023-01-09T05:08:58.565Z,5.55
2023-01-09T05:11:02.901Z,5.18
2023-01-09T05:13:07.692Z,5.90
2023-01-09T05:15:12.422Z,6.00
2023-01-09T05:17:13.960Z,5.55
2023-01-09T05:19:15.497Z,6.32
2023-01-09T05:21:17.264Z,6.10
2023-01-09T05:23:18.959Z,6.22
2023-01-09T05:25:20.590Z,6.35
2023-01-09T05:27:24.823Z,5.97
2023-01-09T05:29:29.376Z,5.97
2023-01-09T05:31:31.016Z,5.63
2023-01-09T05:33:32.721Z,5.20
2023-01-09T05:35:34.463Z,5.50
2023-01-09T05:37:36.070Z,5.15
2023-01-09T05:39:40.044Z,4.68
2023-01-09T05:41:41.724Z,4.20
2023-01-09T05:43:44.819Z,3.97
2023-01-09T05:45:46.484Z,3.95
2023-01-09T05:47:48.115Z,3.40
2023-01-09T05:49:49.765Z,2.80
2023-01-09T05:51:51.363Z,3.10
2023-01-09T05:53:53.005Z,2.30
2023-01-09T05:55:54.662Z,2.28
2023-01-09T05:57:59.027Z,2.22
2023-01-09T06:00:00.798Z,1.83
2023-01-09T06:02:02.602Z,1.90
2023-01-09T06:04:07.102Z,1.70
2023-01-09T06:06:08.781Z,1.30
2023-01-09T06:08:10.729Z,0.88
2023-01-09T06:10:13.520Z,1.00
2023-01-09T06:12:17.778Z,0.88
2023-01-09T06:14:19.532Z,0.80
2023-01-09T06:16:21.010Z,0.70
2023-01-09T06:18:22.726Z,0.65
2023-01-09T06:20:24.344Z,0.60
2023-01-09T06:22:26.022Z,0.45
2023-01-09T06:24:27.722Z,0.40
2023-01-09T06:26:29.302Z,0.50
2023-01-09T06:28:31.046Z,0.63
2023-01-09T06:30:34.182Z,0.35
2023-01-09T06:32:35.790Z,0.68
2023-01-09T06:34:37.390Z,0.38
2023-01-09T06:36:42.022Z,0.40
2023-01-09T06:38:43.725Z,0.40
2023-01-09T06:40:45.381Z,0.30
2023-01-09T06:42:47.754Z,0.32
2023-01-09T06:44:49.332Z,0.30
2023-01-09T06:46:50.965Z,0.52
2023-01-09T06:48:55.271Z,0.30
2023-01-09T06:50:57.028Z,0.38
2023-01-09T06:52:58.766Z,0.30
2023-01-09T06:55:01.507Z,0.32
2023-01-09T06:57:03.239Z,0.30
2023-01-09T06:59:04.739Z,0.30
2023-01-09T07:01:09.160Z,0.30
2023-01-09T07:03:11.632Z,0.30
2023-01-09T07:05:13.454Z,0.45
2023-01-09T07:07:16.531Z,0.50
2023-01-09T07:09:18.059Z,0.20
2023-01-09T07:11:19.718Z,0.30
2023-01-09T07:13:21.515Z,0.50
2023-01-09T07:15:23.308Z,0.30
2023-01-09T07:17:27.943Z,0.40
2023-01-09T07:19:32.589Z,0.40
2023-01-09T07:21:34.100Z,0.28
2023-01-09T07:23:38.689Z,0.40
2023-01-09T07:25:42.319Z,0.40
2023-01-09T07:27:44.202Z,0.30
2023-01-09T07:29:45.956Z,0.20
2023-01-09T07:31:50.264Z,0.30
2023-01-09T07:33:51.859Z,0.35
2023-01-09T07:35:53.559Z,0.30
2023-01-09T07:37:55.460Z,0.30
2023-01-09T07:39:59.260Z,0.47
2023-01-09T07:42:00.935Z,0.52
2023-01-09T07:44:02.473Z,0.50
2023-01-09T07:46:06.855Z,0.47
2023-01-09T07:48:08.470Z,0.38
2023-01-09T07:50:10.545Z,0.40
2023-01-09T07:52:12.073Z,0.40
2023-01-09T07:54:13.927Z,0.50
2023-01-09T07:56:15.576Z,0.60
2023-01-09T07:58:17.054Z,0.60
2023-01-09T08:00:21.310Z,0.40
2023-01-09T08:02:23.106Z,0.52
2023-01-09T08:04:26.074Z,0.63
2023-01-09T08:06:31.717Z,0.43
2023-01-09T08:08:36.521Z,0.40
2023-01-09T08:10:38.270Z,0.40
2023-01-09T08:12:43.547Z,0.50
2023-01-09T08:14:45.106Z,0.60
2023-01-09T08:16:46.659Z,0.50
2023-01-09T08:18:48.272Z,0.60
2023-01-09T08:20:49.914Z,0.40
2023-01-09T08:22:55.241Z,0.50
2023-01-09T08:25:00.166Z,0.50
2023-01-09T08:27:01.786Z,0.60
2023-01-09T08:29:03.287Z,0.68
2023-01-09T08:31:05.179Z,0.65
2023-01-09T08:33:07.029Z,0.60
2023-01-09T08:35:13.752Z,0.63
2023-01-09T08:37:15.312Z,0.40
2023-01-09T08:39:17.119Z,0.40
2023-01-09T08:41:37.182Z,0.55
2023-01-09T08:43:57.430Z,0.70
2023-01-09T08:46:20.832Z,0.68
2023-01-09T08:48:25.586Z,0.63
2023-01-09T08:50:27.209Z,0.65
2023-01-09T08:52:30.660Z,0.40
2023-01-09T08:54:39.837Z,0.70
2023-01-09T08:56:41.508Z,0.75
2023-01-09T08:58:43.600Z,0.57
2023-01-09T09:00:45.304Z,0.82
2023-01-09T09:02:52.503Z,0.60
2023-01-09T09:04:55.944Z,0.60
2023-01-09T09:07:00.589Z,0.50
2023-01-09T09:09:03.332Z,0.45
2023-01-09T09:11:05.091Z,0.80
2023-01-09T09:13:15.460Z,0.70
2023-01-09T09:15:23.934Z,0.60
2023-01-09T09:17:25.443Z,0.70
2023-01-09T09:19:27.055Z,0.70
2023-01-09T09:21:28.727Z,0.85
2023-01-09T09:23:30.266Z,0.60
2023-01-09T09:25:39.696Z,0.80
2023-01-09T09:27:42.051Z,0.80
2023-01-09T09:29:45.498Z,0.90
2023-01-09T09:31:48.339Z,0.90
2023-01-09T09:33:51.383Z,0.70
2023-01-09T09:35:55.966Z,0.63
2023-01-09T09:38:05.205Z,0.70
2023-01-09T09:40:17.971Z,0.70
2023-01-09T09:42:58.147Z,0.45
2023-01-09T09:45:08.698Z,1.08
2023-01-09T09:47:31.570Z,0.80
2023-01-09T09:49:50.299Z,0.50
2023-01-09T09:52:06.107Z,0.93
2023-01-09T09:54:14.771Z,0.50
2023-01-09T09:56:23.313Z,0.60
2023-01-09T09:58:40.580Z,0.63
2023-01-09T10:00:45.445Z,0.70
2023-01-09T10:02:52.312Z,0.85
2023-01-09T10:05:05.207Z,1.25
2023-01-09T10:07:14.563Z,1.33
2023-01-09T10:09:33.790Z,1.23
2023-01-09T10:11:42.959Z,1.10
2023-01-09T10:14:05.831Z,1.40
2023-01-09T10:16:17.659Z,1.00
2023-01-09T10:18:32.776Z,1.38
2023-01-09T10:20:48.185Z,1.10
2023-01-09T10:23:14.352Z,0.82
2023-01-09T10:25:37.245Z,0.93
2023-01-09T10:28:08.008Z,1.02
2023-01-09T10:30:39.807Z,0.80
2023-01-09T10:33:03.620Z,0.77
2023-01-09T10:35:57.572Z,0.60
2023-01-09T10:38:03.965Z,0.70
2023-01-09T10:40:14.428Z,0.75
2023-01-09T10:42:36.730Z,1.00
2023-01-09T10:44:47.931Z,1.23
2023-01-09T10:46:54.728Z,1.30
2023-01-09T10:49:01.057Z,1.23
2023-01-09T10:51:11.679Z,1.27
2023-01-09T10:53:35.882Z,1.55
2023-01-09T10:55:48.346Z,1.33
2023-01-09T10:57:57.405Z,1.20
2023-01-09T10:59:58.930Z,1.10
2023-01-09T11:02:02.233Z,0.90
2023-01-09T11:04:20.296Z,1.00
2023-01-09T11:06:38.202Z,0.93
2023-01-09T11:08:43.012Z,0.80
2023-01-09T11:10:48.355Z,1.10
2023-01-09T11:12:49.841Z,0.98
2023-01-09T11:14:51.525Z,1.30
2023-01-09T11:16:58.321Z,1.00
2023-01-09T11:19:04.590Z,1.30
2023-01-09T11:21:14.166Z,1.08
2023-01-09T11:23:28.964Z,1.02
2023-01-09T11:25:30.556Z,1.00
2023-01-09T11:27:32.009Z,1.02
2023-01-09T11:29:33.715Z,0.82
2023-01-09T11:31:35.600Z,0.90
2023-01-09T11:33:43.077Z,1.10
2023-01-09T11:36:03.220Z,0.90
2023-01-09T11:38:17.196Z,0.90
2023-01-09T11:40:22.306Z,0.95
2023-01-09T11:42:45.549Z,1.08
2023-01-09T11:44:47.377Z,0.95
2023-01-09T11:46:49.100Z,1.30
2023-01-09T11:48:59.712Z,1.00
2023-01-09T11:51:04.309Z,0.95
2023-01-09T11:53:13.880Z,0.90
2023-01-09T11:55:19.079Z,1.13
2023-01-09T11:57:22.819Z,0.88
2023-01-09T11:59:30.137Z,0.90
2023-01-09T12:01:48.210Z,1.02
2023-01-09T12:04:44.416Z,0.90
2023-01-09T12:07:15.750Z,1.05
2023-01-09T12:09:51.630Z,0.80
2023-01-09T12:12:22.715Z,0.93
2023-01-09T12:14:59.989Z,0.63
2023-01-09T12:17:38.653Z,0.80
2023-01-09T12:20:31.955Z,1.10
2023-01-09T12:22:48.584Z,0.80
2023-01-09T12:24:53.368Z,0.93
2023-01-09T12:27:12.037Z,0.88
2023-01-09T12:29:26.849Z,1.15
2023-01-09T12:31:37.569Z,1.42
2023-01-09T12:33:57.590Z,1.60
2023-01-09T12:36:25.441Z,2.10
2023-01-09T12:41:10.731Z,2.00
2023-01-09T12:43:14.986Z,2.00
2023-01-09T12:45:22.476Z,3.13
2023-01-09T12:47:46.047Z,2.65
2023-01-09T12:49:50.859Z,2.88
2023-01-09T12:52:04.100Z,3.22
2023-01-09T12:54:14.115Z,3.30
2023-01-09T12:56:32.179Z,3.20
2023-01-09T12:58:46.874Z,2.92
2023-01-09T13:00:54.108Z,3.53
2023-01-09T13:03:11.944Z,3.58
2023-01-09T13:05:40.341Z,3.33
2023-01-09T13:07:48.950Z,3.10
2023-01-09T13:09:58.785Z,2.60
2023-01-09T13:12:09.079Z,2.63
2023-01-09T13:14:22.673Z,2.45
2023-01-09T13:16:33.025Z,2.00
2023-01-09T13:18:56.093Z,2.25
2023-01-09T13:20:58.029Z,1.95
2023-01-09T13:23:02.910Z,2.53
2023-01-09T13:25:25.546Z,2.75
2023-01-09T13:27:34.549Z,3.88
2023-01-09T13:29:44.115Z,2.90
2023-01-09T13:32:12.553Z,2.33
2023-01-09T13:34:22.580Z,2.08
2023-01-09T13:36:31.286Z,1.55
2023-01-09T13:38:37.730Z,1.60
2023-01-09T13:40:39.631Z,1.60
2023-01-09T13:42:46.375Z,0.90
2023-01-09T13:44:49.957Z,2.22
2023-01-09T13:46:55.829Z,2.63
2023-01-09T13:48:57.389Z,2.30
2023-01-09T13:51:53.020Z,1.90
2023-01-09T13:53:54.578Z,1.30
2023-01-09T13:55:59.610Z,1.52
2023-01-09T13:58:04.504Z,1.38
2023-01-09T14:00:14.562Z,1.33
2023-01-09T14:02:35.489Z,1.13
2023-01-09T14:04:42.639Z,1.25
2023-01-09T14:07:22.489Z,1.10
2023-01-09T14:09:24.272Z,1.23
2023-01-09T14:11:27.641Z,1.10
2023-01-09T14:13:39.768Z,1.13
2023-01-09T14:15:45.082Z,0.82
2023-01-09T14:17:50.035Z,0.80
2023-01-09T14:19:59.539Z,0.57
2023-01-09T14:22:03.589Z,0.55
2023-01-09T14:24:07.315Z,0.70
2023-01-09T14:26:18.502Z,0.80
2023-01-09T14:28:28.450Z,0.88
2023-01-09T14:30:35.833Z,0.60
2023-01-09T14:32:43.493Z,0.68
2023-01-09T14:34:49.523Z,0.80
2023-01-09T14:37:00.122Z,0.80
2023-01-09T14:39:13.915Z,0.57
2023-01-09T14:41:15.585Z,0.88
2023-01-09T14:43:26.936Z,0.80
2023-01-09T14:45:31.578Z,0.60
2023-01-09T14:47:46.739Z,0.80
2023-01-09T14:50:08.896Z,0.70
2023-01-09T14:52:23.723Z,0.70
2023-01-09T14:54:33.026Z,1.75
2023-01-09T14:56:36.591Z,1.60
2023-01-09T14:58:38.353Z,2.30
2023-01-09T15:00:58.586Z,3.00
2023-01-09T15:03:02.684Z,3.08
2023-01-09T15:05:09.423Z,2.70
2023-01-09T15:07:22.028Z,2.38
2023-01-09T15:09:28.650Z,1.92
2023-01-09T15:11:32.407Z,2.63
2023-01-09T15:13:37.662Z,2.40
2023-01-09T15:15:47.982Z,2.50
2023-01-09T15:17:59.101Z,2.33
2023-01-09T15:20:05.002Z,2.90
2023-01-09T15:22:23.926Z,3.17
2023-01-09T15:24:35.626Z,2.88
2023-01-09T15:26:38.915Z,2.75
2023-01-09T15:28:43.935Z,3.22
2023-01-09T15:30:45.661Z,3.28
2023-01-09T15:32:49.760Z,2.53
2023-01-09T15:34:52.305Z,2.20
2023-01-09T15:36:54.128Z,1.83
2023-01-09T15:38:55.810Z,1.45
2023-01-09T15:41:00.304Z,1.77
2023-01-09T15:43:04.035Z,1.80
2023-01-09T15:45:06.566Z,1.60
2023-01-09T15:47:14.781Z,1.95
2023-01-09T15:49:20.616Z,2.30
2023-01-09T15:51:22.920Z,2.28
2023-01-09T15:53:27.599Z,2.78
2023-01-09T15:55:40.050Z,3.17
2023-01-09T15:57:52.286Z,2.88
2023-01-09T15:59:55.255Z,2.92
2023-01-09T16:02:21.302Z,2.55
2023-01-09T16:04:25.035Z,1.98
2023-01-09T16:06:29.485Z,1.80
2023-01-09T16:08:42.367Z,2.35
2023-01-09T16:10:50.519Z,2.13
2023-01-09T16:12:53.230Z,2.38
2023-01-09T16:14:57.664Z,2.17
2023-01-09T16:17:02.747Z,2.10
2023-01-09T16:19:04.451Z,2.25
2023-01-09T16:21:13.536Z,2.17
2023-01-09T16:23:30.850Z,2.60
2023-01-09T16:25:34.585Z,2.40
2023-01-09T16:27:36.354Z,2.60
2023-01-09T16:29:45.133Z,2.53
2023-01-09T16:31:47.427Z,2.15
2023-01-09T16:34:01.628Z,2.10
2023-01-09T16:36:06.564Z,2.10
2023-01-09T16:38:09.782Z,1.85
2023-01-09T16:40:22.206Z,2.00
2023-01-09T16:42:44.496Z,2.00
2023-01-09T16:44:46.083Z,1.90
2023-01-09T16:46:47.705Z,1.70
2023-01-09T16:48:51.792Z,1.60
2023-01-09T16:50:54.153Z,1.75
2023-01-09T16:53:02.064Z,1.40
2023-01-09T16:55:04.653Z,1.40
2023-01-09T16:57:06.584Z,1.13
2023-01-09T16:59:19.207Z,1.35
2023-01-09T17:01:23.596Z,1.00
2023-01-09T17:03:35.517Z,1.10
2023-01-09T17:05:37.166Z,1.35
2023-01-09T17:07:39.062Z,1.40
2023-01-09T17:09:40.786Z,1.33
2023-01-09T17:11:42.787Z,1.25
2023-01-09T17:13:50.682Z,1.17
2023-01-09T17:15:53.739Z,1.20
2023-01-09T17:17:55.407Z,1.17
2023-01-09T17:19:57.124Z,1.05
2023-01-09T17:21:58.844Z,1.17
2023-01-09T17:24:19.302Z,1.40
2023-01-09T17:26:40.270Z,1.88
2023-01-09T17:28:49.192Z,1.77
2023-01-09T17:30:51.073Z,2.03
2023-01-09T17:32:52.686Z,2.10
2023-01-09T17:34:54.237Z,1.75
2023-01-09T17:36:55.945Z,1.45
2023-01-09T17:39:01.431Z,1.50
2023-01-09T17:41:03.203Z,1.50
2023-01-09T17:43:06.186Z,1.10
2023-01-09T17:45:08.313Z,1.10
2023-01-09T17:47:17.233Z,1.17
2023-01-09T17:49:21.064Z,0.80
2023-01-09T17:51:23.267Z,0.80
2023-01-09T17:53:25.589Z,0.75
2023-01-09T17:55:27.476Z,0.70
2023-01-09T17:57:29.258Z,0.60
2023-01-09T17:59:31.264Z,0.73
2023-01-09T18:01:33.007Z,0.68
2023-01-09T18:03:37.413Z,0.70
2023-01-09T18:05:39.474Z,0.77
2023-01-09T18:07:40.977Z,0.75
2023-01-09T18:09:43.113Z,0.70
2023-01-09T18:11:45.122Z,0.57
2023-01-09T18:13:50.396Z,0.77
2023-01-09T18:15:52.294Z,0.80
2023-01-09T18:17:53.876Z,0.63
2023-01-09T18:19:55.668Z,0.88
2023-01-09T18:21:59.490Z,0.70
2023-01-09T18:26:36.373Z,1.80
2023-01-09T18:28:39.352Z,2.17
2023-01-09T18:31:09.626Z,2.45
2023-01-09T18:33:17.200Z,2.05
2023-01-09T18:35:18.802Z,1.73
2023-01-09T18:37:21.613Z,1.52
2023-01-09T18:39:23.226Z,1.27
2023-01-09T18:41:25.742Z,1.23
2023-01-09T18:43:27.800Z,0.98
2023-01-09T18:45:29.683Z,0.80
2023-01-09T18:47:31.507Z,0.85
2023-01-09T18:49:33.033Z,0.85
2023-01-09T18:51:36.723Z,0.90
2023-01-09T18:53:41.256Z,1.10
2023-01-09T18:55:42.908Z,0.98
2023-01-09T18:57:44.656Z,1.10
2023-01-09T18:59:46.239Z,0.77
2023-01-09T19:01:47.891Z,1.10
2023-01-09T19:03:49.673Z,0.90
2023-01-09T19:05:52.229Z,0.90
2023-01-09T19:07:54.126Z,0.80
2023-01-09T19:09:55.806Z,1.00
2023-01-09T19:11:57.496Z,1.20
2023-01-09T19:13:59.369Z,1.05
2023-01-09T19:16:01.949Z,0.90
2023-01-09T19:18:03.785Z,1.35
2023-01-09T19:20:11.948Z,1.40
2023-01-09T19:22:15.150Z,1.40
2023-01-09T19:24:21.106Z,1.52
2023-01-09T19:26:25.973Z,1.70
2023-01-09T19:28:27.508Z,2.25
2023-01-09T19:30:29.140Z,2.35
2023-01-09T19:32:30.854Z,2.20
2023-01-09T19:34:32.425Z,3.17
2023-01-09T19:36:43.494Z,3.63
2023-01-09T19:38:45.294Z,3.65
2023-01-09T19:40:46.974Z,3.22
2023-01-09T19:42:48.727Z,3.10
2023-01-09T19:44:53.172Z,2.50
2023-01-09T19:46:54.876Z,2.55
2023-01-09T19:48:59.085Z,2.47
2023-01-09T19:51:03.313Z,2.40
2023-01-09T19:53:05.009Z,2.20
2023-01-09T19:55:06.947Z,2.25
2023-01-09T19:57:08.617Z,2.08
2023-01-09T19:59:12.092Z,2.15
2023-01-09T20:01:16.057Z,2.05
2023-01-09T20:03:17.699Z,1.58
2023-01-09T20:05:19.387Z,1.83
2023-01-09T20:07:24.048Z,1.50
2023-01-09T20:09:27.531Z,1.13
2023-01-09T20:11:30.951Z,1.20
2023-01-09T20:13:34.217Z,1.08
2023-01-09T20:15:37.534Z,1.20
2023-01-09T20:17:39.227Z,1.10
2023-01-09T20:19:40.952Z,1.10
2023-01-09T20:21:45.775Z,1.00
2023-01-09T20:23:48.188Z,0.90
2023-01-09T20:25:50.661Z,0.80
2023-01-09T20:27:52.338Z,0.60
2023-01-09T20:29:53.871Z,0.95
2023-01-09T20:31:58.697Z,0.70
2023-01-09T20:34:00.797Z,0.95
2023-01-09T20:36:04.855Z,1.00
2023-01-09T20:38:07.974Z,1.27
2023-01-09T20:40:10.375Z,1.02
2023-01-09T20:42:12.266Z,0.90
2023-01-09T20:44:15.631Z,0.90
2023-01-09T20:46:17.721Z,1.00
2023-01-09T20:48:19.404Z,0.70
2023-01-09T20:50:22.103Z,0.90
2023-01-09T20:52:23.898Z,0.75
2023-01-09T20:54:25.493Z,0.95
2023-01-09T20:56:29.757Z,2.13
2023-01-09T20:58:31.352Z,2.28
2023-01-09T21:00:32.969Z,2.20
2023-01-09T21:02:35.464Z,1.90
2023-01-09T21:04:37.003Z,1.58
2023-01-09T21:06:38.828Z,1.23
2023-01-09T21:08:42.970Z,1.10
2023-01-09T21:10:47.319Z,0.93
2023-01-09T21:12:49.118Z,0.70
2023-01-09T21:14:51.241Z,0.75
2023-01-09T21:16:55.001Z,0.75
2023-01-09T21:18:59.257Z,0.70
2023-01-09T21:21:06.620Z,0.80
2023-01-09T21:23:09.575Z,0.80
2023-01-09T21:25:11.186Z,0.60
2023-01-09T21:27:12.889Z,0.70
2023-01-09T21:29:15.548Z,0.70
2023-01-09T21:31:20.704Z,0.65
2023-01-09T21:33:22.543Z,0.80
2023-01-09T21:35:26.856Z,0.70
2023-01-09T21:37:28.898Z,0.85
2023-01-09T21:39:30.621Z,0.70
2023-01-09T21:41:50.833Z,0.90
2023-01-09T21:44:11.286Z,0.68
2023-01-09T21:46:36.180Z,0.68
2023-01-09T21:48:37.888Z,0.70
2023-01-09T21:50:41.175Z,0.80
2023-01-09T21:52:42.842Z,0.68
2023-01-09T21:54:44.880Z,0.57
2023-01-09T21:56:46.561Z,0.65
2023-01-09T21:58:49.408Z,0.63
2023-01-09T22:00:56.945Z,0.80
2023-01-09T22:03:01.357Z,0.80
2023-01-09T22:05:03.099Z,0.60
2023-01-09T22:07:04.688Z,0.73
2023-01-09T22:09:06.379Z,0.80
2023-01-09T22:11:10.644Z,0.60
2023-01-09T22:13:18.688Z,0.75
2023-01-09T22:15:20.253Z,0.90
2023-01-09T22:17:23.071Z,0.60
2023-01-09T22:19:26.196Z,0.77
2023-01-09T22:21:29.619Z,0.82
2023-01-09T22:23:31.258Z,0.63
2023-01-09T22:25:38.946Z,0.75
2023-01-09T22:27:40.530Z,0.73
2023-01-09T22:29:44.839Z,0.88
2023-01-09T22:31:46.413Z,0.82
2023-01-09T22:33:57.814Z,0.65
2023-01-09T22:36:05.427Z,0.95
2023-01-09T22:38:07.815Z,0.70
2023-01-09T22:40:10.109Z,0.70
2023-01-09T22:42:11.769Z,0.60
2023-01-09T22:44:16.591Z,0.52
2023-01-09T22:46:18.254Z,0.70
2023-01-09T22:48:22.866Z,0.70
2023-01-09T22:50:27.086Z,0.90
2023-01-09T22:52:29.101Z,0.70
2023-01-09T22:54:30.730Z,1.10
2023-01-09T22:56:34.289Z,0.77
2023-01-09T22:58:36.627Z,1.00
2023-01-09T23:00:38.346Z,1.10
2023-01-09T23:02:58.520Z,0.90
2023-01-09T23:05:03.325Z,0.80
2023-01-09T23:07:04.848Z,0.73
2023-01-09T23:09:06.526Z,0.77
2023-01-09T23:11:11.693Z,0.65
2023-01-09T23:13:19.160Z,0.80
2023-01-09T23:15:23.622Z,0.90
2023-01-09T23:17:25.437Z,0.90
2023-01-09T23:19:31.672Z,0.70
2023-01-09T23:21:37.821Z,0.80
2023-01-09T23:23:40.608Z,0.77
2023-01-09T23:25:48.207Z,0.75
2023-01-09T23:27:49.770Z,0.70
2023-01-09T23:29:51.419Z,0.60
2023-01-09T23:31:53.847Z,0.60
2023-01-09T23:33:56.363Z,0.75
2023-01-09T23:35:58.593Z,1.10
2023-01-09T23:38:00.403Z,0.63
2023-01-09T23:40:01.991Z,0.90
2023-01-09T23:42:23.209Z,0.70
2023-01-09T23:44:24.986Z,0.93
2023-01-09T23:46:26.668Z,0.70
2023-01-09T23:48:28.317Z,0.80
2023-01-09T23:50:30.182Z,0.90
2023-01-09T23:52:33.539Z,0.85
2023-01-09T23:54:38.492Z,0.50
2023-01-09T23:56:50.405Z,0.80
2023-01-09T23:58:51.935Z,0.70
